Time;durP1;ratioP1;P1;durP2;ratioP2;P2;SDS_P1;SDS_P2;PMS_P1;PMS_P2;Temp;Humidity;BMP_temperature;BMP_pressure;BME280_temperature;BME280_humidity;BME280_pressure;Samples;Min_cycle;Max_cycle;Signal;HPM_P1;HPM_P2
2021/01/10 00:00:15;;;;;;;17.97;9.83;;;-3.80;99.90;;;;;;2064693;28;20198;-61
2021/01/10 00:01:16;;;;;;;17.75;10.20;;;-3.80;99.90;;;;;;2064677;28;20182;-59
2021/01/10 00:02:17;;;;;;;20.47;10.23;;;-3.80;99.90;;;;;;2064832;28;20178;-60
2021/01/10 00:03:17;;;;;;;16.50;9.70;;;-3.80;99.90;;;;;;2064667;28;20209;-59
2021/01/10 00:04:18;;;;;;;17.73;10.03;;;-3.90;99.90;;;;;;2064869;28;20183;-60
2021/01/10 00:05:34;;;;;;;21.47;11.20;;;-3.90;99.90;;;;;;2064757;28;20170;-60
2021/01/10 00:06:35;;;;;;;17.83;10.00;;;-3.80;99.90;;;;;;2064150;28;20186;-59
2021/01/10 00:07:36;;;;;;;20.20;10.57;;;-3.80;99.90;;;;;;2064291;28;20186;-60
2021/01/10 00:08:37;;;;;;;15.48;9.68;;;-3.90;99.90;;;;;;2064726;28;20184;-58
2021/01/10 00:09:38;;;;;;;18.63;10.17;;;-4.00;99.90;;;;;;2064862;28;20269;-58
2021/01/10 00:10:38;;;;;;;17.03;10.47;;;-4.00;99.90;;;;;;2064832;28;20268;-60
2021/01/10 00:11:43;;;;;;;19.23;10.40;;;-3.90;99.90;;;;;;2064703;28;20841;-60
2021/01/10 00:12:44;;;;;;;21.23;11.48;;;-3.90;99.90;;;;;;2064949;28;20230;-59
2021/01/10 00:13:45;;;;;;;24.90;13.25;;;-3.90;99.90;;;;;;2064722;28;20191;-60
2021/01/10 00:14:46;;;;;;;18.67;10.80;;;-4.00;99.90;;;;;;2064935;28;20716;-60
2021/01/10 00:15:46;;;;;;;17.98;10.45;;;-3.90;99.90;;;;;;2064842;28;20198;-61
2021/01/10 00:16:47;;;;;;;16.10;9.67;;;-3.80;99.90;;;;;;2064771;28;20211;-60
2021/01/10 00:17:48;;;;;;;18.10;9.90;;;-3.90;99.90;;;;;;2064800;28;20664;-61
2021/01/10 00:18:48;;;;;;;16.37;10.40;;;-3.90;99.90;;;;;;2064535;28;20183;-60
2021/01/10 00:19:49;;;;;;;19.07;10.60;;;-3.80;99.90;;;;;;2064823;28;20730;-60
2021/01/10 00:20:50;;;;;;;19.20;10.53;;;-3.80;99.90;;;;;;2064430;28;20297;-60
2021/01/10 00:21:51;;;;;;;17.63;10.10;;;-3.80;99.90;;;;;;2064814;28;20231;-59
2021/01/10 00:22:53;;;;;;;18.13;10.77;;;-3.80;99.90;;;;;;2064660;28;20706;-60
2021/01/10 00:23:53;;;;;;;16.83;10.50;;;-3.80;99.90;;;;;;2064835;28;20182;-61
2021/01/10 00:24:54;;;;;;;16.73;9.80;;;-3.90;99.90;;;;;;2064701;28;20217;-60
2021/01/10 00:25:55;;;;;;;16.23;9.67;;;-3.90;99.90;;;;;;2064691;28;20297;-60
2021/01/10 00:26:55;;;;;;;18.03;10.47;;;-3.90;99.90;;;;;;2064784;28;20799;-60
2021/01/10 00:27:56;;;;;;;14.67;8.77;;;-3.90;99.90;;;;;;2064640;28;20283;-59
2021/01/10 00:28:57;;;;;;;12.53;7.00;;;-3.80;99.90;;;;;;2064590;28;20183;-59
2021/01/10 00:29:58;;;;;;;15.43;8.43;;;-3.90;99.90;;;;;;2064443;28;20180;-60
2021/01/10 00:30:59;;;;;;;16.83;9.10;;;-3.90;99.90;;;;;;2064424;28;20185;-60
2021/01/10 00:32:00;;;;;;;16.00;9.03;;;-3.90;99.90;;;;;;2064675;28;20178;-58
2021/01/10 00:33:00;;;;;;;14.48;8.43;;;-3.90;99.90;;;;;;2064302;28;20198;-60
2021/01/10 00:34:03;;;;;;;14.40;8.13;;;-3.80;99.90;;;;;;2064459;28;20214;-59
2021/01/10 00:35:06;;;;;;;15.40;9.20;;;-3.90;99.90;;;;;;2064267;28;20661;-61
2021/01/10 00:36:06;;;;;;;15.00;8.18;;;-3.90;99.90;;;;;;2064637;28;20205;-60
2021/01/10 00:38:32;;;;;;;14.52;8.63;;;-3.90;99.90;;;;;;2077697;28;20255;-71
2021/01/10 00:39:33;;;;;;;17.10;8.77;;;-3.90;99.90;;;;;;2081026;28;20232;-70
2021/01/10 00:40:33;;;;;;;14.73;8.47;;;-3.90;99.90;;;;;;2080873;28;20200;-69
2021/01/10 00:41:39;;;;;;;16.30;8.77;;;-3.90;99.90;;;;;;2080794;28;20767;-70
2021/01/10 00:42:43;;;;;;;14.18;8.13;;;-3.90;99.90;;;;;;2080475;28;20264;-70
2021/01/10 00:43:44;;;;;;;15.27;7.88;;;-4.00;99.90;;;;;;2080259;28;20575;-70
2021/01/10 00:44:46;;;;;;;15.93;9.43;;;-4.00;99.90;;;;;;2080736;28;20184;-69
2021/01/10 00:45:46;;;;;;;14.85;8.40;;;-3.90;99.90;;;;;;2080108;28;20305;-70
2021/01/10 00:46:51;;;;;;;13.80;7.90;;;-3.90;99.90;;;;;;2072300;28;20178;-70
2021/01/10 00:47:54;;;;;;;12.02;7.82;;;-3.90;99.90;;;;;;2071882;28;20700;-72
2021/01/10 00:48:55;;;;;;;16.52;9.15;;;-3.90;99.90;;;;;;2072440;28;20189;-71
2021/01/10 00:49:55;;;;;;;13.47;7.67;;;-3.90;99.90;;;;;;2072637;28;20187;-69
2021/01/10 00:50:56;;;;;;;17.07;8.47;;;-3.90;99.90;;;;;;2072517;28;20178;-70
2021/01/10 00:51:57;;;;;;;14.70;8.83;;;-3.90;99.90;;;;;;2072692;28;20185;-70
2021/01/10 00:52:58;;;;;;;14.30;8.68;;;-3.90;99.90;;;;;;2072199;28;20193;-70
2021/01/10 00:53:58;;;;;;;13.37;8.47;;;-3.80;99.90;;;;;;2064071;28;20198;-70
2021/01/10 00:55:00;;;;;;;14.50;8.43;;;-3.80;99.90;;;;;;2072276;28;20192;-70
2021/01/10 00:56:04;;;;;;;15.43;8.57;;;-3.80;99.90;;;;;;2072764;28;20645;-69
2021/01/10 00:57:06;;;;;;;15.40;9.27;;;-3.80;99.90;;;;;;2072702;28;20186;-70
2021/01/10 00:58:07;;;;;;;14.20;8.63;;;-3.80;99.90;;;;;;2072678;28;20606;-73
2021/01/10 00:59:07;;;;;;;16.33;9.10;;;-3.80;99.90;;;;;;2072615;28;20186;-70
2021/01/10 01:00:14;;;;;;;15.10;8.47;;;-3.90;99.90;;;;;;2072590;28;20213;-69
2021/01/10 01:01:14;;;;;;;13.13;8.32;;;-4.00;99.90;;;;;;2072510;28;20173;-69
2021/01/10 01:02:16;;;;;;;13.87;8.57;;;-3.90;99.90;;;;;;2072267;28;20257;-71
2021/01/10 01:03:16;;;;;;;14.23;7.75;;;-3.90;99.90;;;;;;2064348;28;20712;-69
2021/01/10 01:04:18;;;;;;;15.33;8.97;;;-3.90;99.90;;;;;;2072394;28;20185;-71
2021/01/10 01:05:19;;;;;;;13.88;8.18;;;-3.90;99.90;;;;;;2072288;28;20182;-69
2021/01/10 01:06:19;;;;;;;11.60;6.83;;;-3.90;99.90;;;;;;2072255;28;20194;-69
2021/01/10 01:07:20;;;;;;;12.83;7.37;;;-3.90;99.90;;;;;;2072728;28;20181;-69
2021/01/10 01:08:21;;;;;;;13.07;7.67;;;-4.00;99.90;;;;;;2072725;28;20239;-69
2021/01/10 01:09:21;;;;;;;14.63;7.80;;;-4.00;99.90;;;;;;2072750;28;20656;-69
2021/01/10 01:10:22;;;;;;;13.63;7.77;;;-4.00;99.90;;;;;;2072956;28;20541;-70
2021/01/10 01:11:28;;;;;;;14.03;8.17;;;-4.10;99.90;;;;;;2072689;28;20213;-70
2021/01/10 01:12:28;;;;;;;12.63;6.88;;;-4.10;99.90;;;;;;2063788;28;20186;-69
2021/01/10 01:13:29;;;;;;;13.57;7.57;;;-4.20;99.90;;;;;;2063920;28;20194;-69
2021/01/10 01:14:30;;;;;;;12.10;7.33;;;-4.10;99.90;;;;;;2072872;28;20599;-70
2021/01/10 01:15:31;;;;;;;11.27;6.93;;;-4.10;99.90;;;;;;2072602;28;20587;-69
2021/01/10 01:16:32;;;;;;;10.67;6.87;;;-4.10;99.90;;;;;;2072752;28;20625;-69
2021/01/10 01:17:32;;;;;;;11.65;6.60;;;-4.20;99.90;;;;;;2072351;28;20192;-69
2021/01/10 01:18:34;;;;;;;10.97;6.57;;;-4.10;99.90;;;;;;2072895;28;20190;-69
2021/01/10 01:19:35;;;;;;;10.73;6.68;;;-4.20;99.90;;;;;;2072046;28;20232;-69
2021/01/10 01:20:36;;;;;;;11.63;6.90;;;-4.10;99.90;;;;;;2072043;28;20308;-70
2021/01/10 01:21:37;;;;;;;10.65;6.53;;;-4.00;99.90;;;;;;2071739;28;20625;-69
2021/01/10 01:22:37;;;;;;;11.90;7.03;;;-4.00;99.90;;;;;;2071963;28;20217;-70
2021/01/10 01:23:38;;;;;;;11.00;6.80;;;-4.00;99.90;;;;;;2072689;28;20190;-69
2021/01/10 01:24:39;;;;;;;11.93;7.10;;;-4.00;99.90;;;;;;2072765;28;20185;-69
2021/01/10 01:25:40;;;;;;;13.13;7.00;;;-4.00;99.90;;;;;;2072634;28;21222;-69
2021/01/10 01:26:40;;;;;;;11.43;6.90;;;-4.00;99.90;;;;;;2072555;28;20178;-69
2021/01/10 01:27:41;;;;;;;11.27;7.00;;;-4.00;99.90;;;;;;2072425;28;20177;-69
2021/01/10 01:28:43;;;;;;;11.57;6.57;;;-4.10;99.90;;;;;;2072576;28;20630;-69
2021/01/10 01:29:44;;;;;;;10.32;6.60;;;-4.00;99.90;;;;;;2071942;28;20244;-69
2021/01/10 01:30:44;;;;;;;11.37;7.10;;;-4.00;99.90;;;;;;2072296;28;20256;-70
2021/01/10 01:31:45;;;;;;;11.77;7.07;;;-4.00;99.90;;;;;;2072479;28;20199;-69
2021/01/10 01:32:46;;;;;;;11.50;6.23;;;-4.00;99.90;;;;;;2070271;28;20232;-69
2021/01/10 01:33:47;;;;;;;10.00;6.33;;;-4.00;99.90;;;;;;2062399;28;20190;-71
2021/01/10 01:34:48;;;;;;;11.65;6.60;;;-3.90;99.90;;;;;;2063996;28;20184;-72
2021/01/10 01:35:49;;;;;;;11.83;7.20;;;-4.00;99.90;;;;;;2063946;28;20277;-70
2021/01/10 01:36:49;;;;;;;11.77;7.10;;;-4.00;99.90;;;;;;2064679;28;20218;-70
2021/01/10 01:37:50;;;;;;;12.20;7.07;;;-4.00;99.90;;;;;;2064480;28;20209;-69
2021/01/10 01:38:56;;;;;;;10.87;6.73;;;-4.00;99.90;;;;;;2064416;28;20584;-69
2021/01/10 01:39:57;;;;;;;10.95;6.63;;;-4.00;99.90;;;;;;2063857;28;20618;-70
2021/01/10 01:41:00;;;;;;;10.65;6.88;;;-4.00;99.90;;;;;;2063872;28;20183;-70
2021/01/10 01:42:00;;;;;;;9.95;6.38;;;-4.00;99.90;;;;;;2064075;28;20222;-69
2021/01/10 01:43:01;;;;;;;9.37;6.00;;;-4.00;99.90;;;;;;2064127;28;20218;-69
2021/01/10 01:44:03;;;;;;;10.97;7.10;;;-4.00;99.90;;;;;;2063664;28;20281;-69
2021/01/10 01:45:07;;;;;;;12.13;6.72;;;-4.00;99.90;;;;;;2063938;28;20213;-70
2021/01/10 01:46:20;;;;;;;9.50;6.75;;;-4.00;99.90;;;;;;2057831;28;20191;-69
2021/01/10 01:47:21;;;;;;;9.90;6.65;;;-4.00;99.90;;;;;;2058969;28;20267;-69
2021/01/10 01:48:22;;;;;;;10.57;6.97;;;-3.90;99.90;;;;;;2065309;28;20675;-70
2021/01/10 01:49:23;;;;;;;10.03;6.27;;;-3.90;99.90;;;;;;2065161;28;20793;-71
2021/01/10 01:50:24;;;;;;;11.55;6.50;;;-3.90;99.90;;;;;;2057195;28;20206;-69
2021/01/10 01:51:26;;;;;;;11.97;7.50;;;-3.90;99.90;;;;;;2065134;28;20179;-70
2021/01/10 01:52:26;;;;;;;10.93;6.97;;;-3.90;99.90;;;;;;2065995;28;20181;-70
2021/01/10 01:53:27;;;;;;;11.40;6.87;;;-3.90;99.90;;;;;;2065913;28;20208;-70
2021/01/10 01:54:29;;;;;;;11.02;6.35;;;-4.00;99.90;;;;;;2065306;28;20208;-69
2021/01/10 01:55:30;;;;;;;10.90;6.63;;;-4.00;99.90;;;;;;2057310;28;20218;-70
2021/01/10 01:56:31;;;;;;;10.73;6.40;;;-4.00;99.90;;;;;;2065369;28;20615;-69
2021/01/10 01:57:32;;;;;;;11.93;6.95;;;-3.90;99.90;;;;;;2057214;28;20195;-70
2021/01/10 01:58:33;;;;;;;10.77;5.87;;;-4.00;99.90;;;;;;2065504;28;20354;-70
2021/01/10 01:59:33;;;;;;;9.25;5.95;;;-4.00;99.90;;;;;;2066021;28;20186;-69
2021/01/10 02:00:34;;;;;;;9.37;6.10;;;-4.00;99.90;;;;;;2065893;28;20206;-69
2021/01/10 02:01:37;;;;;;;11.13;6.13;;;-4.00;99.90;;;;;;2065743;28;20189;-69
2021/01/10 02:02:37;;;;;;;8.52;5.22;;;-3.90;99.90;;;;;;2065462;28;20205;-70
2021/01/10 02:03:42;;;;;;;11.50;6.67;;;-4.00;99.90;;;;;;2065117;28;20753;-70
2021/01/10 02:05:05;;;;;;;9.25;5.18;;;-4.00;99.90;;;;;;2065329;28;20175;-70
2021/01/10 02:06:17;;;;;;;9.07;5.72;;;-4.00;99.90;;;;;;2065444;28;20185;-69
2021/01/10 02:07:28;;;;;;;9.95;6.15;;;-4.00;99.90;;;;;;2065205;28;20163;-69
2021/01/10 02:08:32;;;;;;;10.13;5.95;;;-4.10;99.90;;;;;;2065264;28;20205;-70
2021/01/10 02:09:42;;;;;;;9.73;5.45;;;-4.00;99.90;;;;;;2065089;28;20228;-70
2021/01/10 02:10:45;;;;;;;8.40;5.43;;;-3.90;99.90;;;;;;2065122;28;20176;-70
2021/01/10 02:11:52;;;;;;;9.43;6.30;;;-4.00;99.90;;;;;;2065044;28;20188;-71
2021/01/10 02:12:55;;;;;;;9.23;5.70;;;-3.90;99.90;;;;;;2065317;28;20175;-69
2021/01/10 02:13:57;;;;;;;10.50;5.60;;;-3.90;99.90;;;;;;2065084;28;20620;-70
2021/01/10 02:15:06;;;;;;;8.73;5.60;;;-3.90;99.90;;;;;;2065260;28;20202;-70
2021/01/10 02:16:08;;;;;;;7.80;5.35;;;-4.00;99.90;;;;;;2058181;28;20176;-71
2021/01/10 02:17:11;;;;;;;8.43;5.35;;;-3.90;99.90;;;;;;2065198;28;20174;-69
2021/01/10 02:18:14;;;;;;;8.50;5.22;;;-3.90;99.90;;;;;;2065639;28;20297;-70
2021/01/10 02:19:43;;;;;;;10.52;5.88;;;-4.00;99.90;;;;;;2065089;28;20238;-69
2021/01/10 02:20:43;;;;;;;8.00;5.43;;;-4.00;99.90;;;;;;2065036;28;20213;-69
2021/01/10 02:21:46;;;;;;;8.67;5.60;;;-4.00;99.90;;;;;;2064698;28;20179;-70
2021/01/10 02:22:55;;;;;;;8.30;5.57;;;-3.90;99.90;;;;;;2065144;28;20188;-70
2021/01/10 02:24:04;;;;;;;10.10;6.13;;;-3.90;99.90;;;;;;2064994;28;20724;-69
2021/01/10 02:25:05;;;;;;;8.88;5.15;;;-4.00;99.90;;;;;;2065280;28;20648;-69
2021/01/10 02:26:08;;;;;;;7.32;5.07;;;-4.10;99.90;;;;;;2065504;28;20665;-70
2021/01/10 02:27:09;;;;;;;9.85;6.13;;;-4.10;99.90;;;;;;2064989;28;20186;-69
2021/01/10 02:28:11;;;;;;;9.65;6.03;;;-4.10;99.90;;;;;;2064864;28;20195;-70
2021/01/10 02:29:12;;;;;;;7.63;5.10;;;-4.10;99.90;;;;;;2065086;28;20563;-69
2021/01/10 02:30:15;;;;;;;9.30;6.03;;;-4.10;99.90;;;;;;2064932;28;20269;-69
2021/01/10 02:31:17;;;;;;;8.68;5.65;;;-4.10;99.90;;;;;;2064702;28;20625;-70
2021/01/10 02:32:20;;;;;;;8.23;5.13;;;-4.00;99.90;;;;;;2057022;28;20282;-69
2021/01/10 02:33:42;;;;;;;9.77;5.78;;;-4.00;99.90;;;;;;2065171;28;20174;-69
2021/01/10 02:34:43;;;;;;;10.70;5.22;;;-4.10;99.90;;;;;;2065918;28;20232;-69
2021/01/10 02:35:45;;;;;;;9.57;5.38;;;-4.10;99.90;;;;;;2065841;28;20179;-69
2021/01/10 02:36:48;;;;;;;10.50;6.03;;;-4.10;99.90;;;;;;2064924;28;20190;-69
2021/01/10 02:38:53;;;;;;;8.57;5.60;;;-4.10;99.90;;;;;;2064624;28;20689;-70
2021/01/10 02:40:19;;;;;;;9.27;5.20;;;-4.10;99.90;;;;;;2048481;29;20274;-69
2021/01/10 02:41:33;;;;;;;6.68;4.22;;;-4.10;99.90;;;;;;2040290;29;20660;-69
2021/01/10 02:42:57;;;;;;;8.60;5.35;;;-4.10;99.90;;;;;;2042348;29;20175;-68
2021/01/10 02:44:19;;;;;;;10.05;5.50;;;-4.10;99.90;;;;;;2048502;29;20251;-69
2021/01/10 02:45:21;;;;;;;8.98;4.97;;;-4.10;99.90;;;;;;2052694;28;20239;-69
2021/01/10 02:46:24;;;;;;;8.82;4.80;;;-4.00;99.90;;;;;;2065096;28;20604;-70
2021/01/10 02:47:25;;;;;;;7.57;4.80;;;-4.00;99.90;;;;;;2064699;28;20186;-71
2021/01/10 02:48:26;;;;;;;9.50;6.17;;;-4.00;99.90;;;;;;2064816;28;20170;-69
2021/01/10 02:49:27;;;;;;;7.82;5.45;;;-3.90;99.90;;;;;;2064894;28;20656;-70
2021/01/10 02:50:29;;;;;;;7.10;5.27;;;-4.00;99.90;;;;;;2064851;28;20198;-70
2021/01/10 02:51:30;;;;;;;9.20;5.80;;;-4.00;99.90;;;;;;2065159;28;20193;-69
2021/01/10 02:52:32;;;;;;;7.53;5.33;;;-4.00;99.90;;;;;;2065471;28;20273;-70
2021/01/10 02:53:35;;;;;;;9.75;6.03;;;-4.00;99.90;;;;;;2056640;28;20188;-70
2021/01/10 02:54:36;;;;;;;10.02;6.25;;;-4.00;99.90;;;;;;2057031;28;20183;-69
2021/01/10 02:55:37;;;;;;;9.65;6.13;;;-4.00;99.90;;;;;;2065280;28;20196;-70
2021/01/10 02:56:53;;;;;;;9.23;5.50;;;-4.10;99.90;;;;;;2064552;28;20197;-69
2021/01/10 02:58:01;;;;;;;7.38;5.30;;;-4.10;99.90;;;;;;2064549;28;20281;-69
2021/01/10 02:59:03;;;;;;;9.25;5.30;;;-4.10;99.90;;;;;;2064757;28;20556;-69
2021/01/10 03:00:07;;;;;;;8.65;5.53;;;-4.00;99.90;;;;;;2064799;28;20193;-69
2021/01/10 03:01:11;;;;;;;9.27;5.97;;;-4.00;99.90;;;;;;2056933;28;20191;-69
2021/01/10 03:02:13;;;;;;;8.80;5.63;;;-4.00;99.90;;;;;;2056970;28;20234;-70
2021/01/10 03:03:15;;;;;;;7.70;5.15;;;-4.00;99.90;;;;;;2056696;28;20663;-69
2021/01/10 03:04:16;;;;;;;9.15;5.63;;;-4.00;99.90;;;;;;2056887;28;20190;-69
2021/01/10 03:05:17;;;;;;;9.50;5.60;;;-4.00;99.90;;;;;;2056649;28;20175;-70
2021/01/10 03:06:18;;;;;;;9.70;5.85;;;-4.00;99.90;;;;;;2056662;28;20222;-69
2021/01/10 03:07:19;;;;;;;9.50;5.40;;;-4.00;99.90;;;;;;2056747;28;20596;-69
2021/01/10 03:08:20;;;;;;;10.02;5.72;;;-4.00;99.90;;;;;;2064757;28;20202;-70
2021/01/10 03:09:22;;;;;;;9.90;6.03;;;-4.00;99.90;;;;;;2064892;28;20646;-68
2021/01/10 03:10:23;;;;;;;11.43;6.15;;;-4.00;99.90;;;;;;2064730;28;20413;-69
2021/01/10 03:11:24;;;;;;;10.73;5.55;;;-4.00;99.90;;;;;;2064656;28;20181;-70
2021/01/10 03:12:26;;;;;;;9.73;5.82;;;-3.90;99.90;;;;;;2064674;28;20183;-69
2021/01/10 03:13:27;;;;;;;8.68;5.90;;;-4.10;99.90;;;;;;2064774;28;20556;-70
2021/01/10 03:14:27;;;;;;;8.80;5.75;;;-4.10;99.90;;;;;;2056588;28;20274;-70
2021/01/10 03:15:29;;;;;;;8.20;5.80;;;-4.10;99.90;;;;;;2064775;28;20736;-69
2021/01/10 03:16:30;;;;;;;9.80;6.07;;;-4.00;99.90;;;;;;2056735;28;20187;-71
2021/01/10 03:17:41;;;;;;;9.82;6.03;;;-4.00;99.90;;;;;;2064706;28;20185;-69
2021/01/10 03:18:42;;;;;;;8.55;5.20;;;-4.00;99.90;;;;;;2065969;28;20225;-69
2021/01/10 03:19:43;;;;;;;10.70;6.45;;;-4.00;99.90;;;;;;2072967;28;20220;-69
2021/01/10 03:20:44;;;;;;;9.50;6.33;;;-4.10;99.90;;;;;;2065035;28;20608;-71
2021/01/10 03:21:44;;;;;;;10.33;6.27;;;-4.10;99.90;;;;;;2064552;28;20178;-69
2021/01/10 03:22:46;;;;;;;9.33;6.43;;;-4.10;99.90;;;;;;2064534;28;20274;-69
2021/01/10 03:23:47;;;;;;;8.57;5.32;;;-4.00;99.90;;;;;;2065281;28;20182;-69
2021/01/10 03:24:48;;;;;;;9.93;6.23;;;-4.00;99.90;;;;;;2065202;28;20178;-69
2021/01/10 03:25:49;;;;;;;7.73;5.70;;;-4.00;99.90;;;;;;2065311;28;20206;-69
2021/01/10 03:26:49;;;;;;;8.40;5.43;;;-4.00;99.90;;;;;;2064970;28;20789;-70
2021/01/10 03:27:50;;;;;;;9.30;5.87;;;-4.00;99.90;;;;;;2065073;28;20673;-70
2021/01/10 03:28:51;;;;;;;8.77;5.80;;;-4.00;99.90;;;;;;2065399;28;20566;-69
2021/01/10 03:29:52;;;;;;;11.00;6.60;;;-3.90;99.90;;;;;;2065397;28;20270;-69
2021/01/10 03:30:52;;;;;;;10.07;6.03;;;-3.90;99.90;;;;;;2064754;28;20182;-69
2021/01/10 03:31:53;;;;;;;9.17;5.83;;;-3.90;99.90;;;;;;2065176;28;20191;-69
2021/01/10 03:32:54;;;;;;;8.17;5.37;;;-3.80;99.90;;;;;;2065053;28;20187;-69
2021/01/10 03:33:54;;;;;;;9.77;6.23;;;-3.80;99.90;;;;;;2065200;28;20178;-69
2021/01/10 03:34:55;;;;;;;8.20;6.00;;;-3.90;99.90;;;;;;2065041;28;20657;-69
2021/01/10 03:35:56;;;;;;;7.87;5.67;;;-3.80;99.90;;;;;;2063819;28;20183;-70
2021/01/10 03:36:56;;;;;;;10.43;6.33;;;-3.80;99.90;;;;;;2062905;28;20185;-68
2021/01/10 03:37:57;;;;;;;9.23;5.97;;;-3.80;99.90;;;;;;2064463;28;20223;-69
2021/01/10 03:38:58;;;;;;;9.50;5.80;;;-3.90;99.90;;;;;;2064505;28;20213;-69
2021/01/10 03:39:59;;;;;;;8.63;5.47;;;-3.80;99.90;;;;;;2065132;28;20194;-69
2021/01/10 03:41:00;;;;;;;9.48;5.65;;;-3.80;99.90;;;;;;2064693;28;20262;-69
2021/01/10 03:42:01;;;;;;;9.77;5.83;;;-3.80;99.90;;;;;;2065297;28;20667;-68
2021/01/10 03:43:02;;;;;;;10.20;6.18;;;-3.90;99.90;;;;;;2064156;28;20411;-70
2021/01/10 03:44:02;;;;;;;8.45;5.70;;;-3.90;99.90;;;;;;2064409;28;20186;-69
2021/01/10 03:45:05;;;;;;;9.43;6.00;;;-3.90;99.90;;;;;;2064455;28;20175;-68
2021/01/10 03:46:06;;;;;;;8.38;5.57;;;-3.90;99.90;;;;;;2064443;28;20203;-69
2021/01/10 03:47:06;;;;;;;8.03;5.10;;;-3.80;99.90;;;;;;2065989;28;20178;-68
2021/01/10 03:48:08;;;;;;;10.20;5.60;;;-3.80;99.90;;;;;;2066107;28;20722;-68
2021/01/10 03:49:08;;;;;;;9.23;5.82;;;-3.80;99.90;;;;;;2064369;28;20660;-69
2021/01/10 03:50:10;;;;;;;9.13;5.90;;;-3.80;99.90;;;;;;2064996;28;20191;-68
2021/01/10 03:51:11;;;;;;;8.57;5.72;;;-3.80;99.90;;;;;;2064077;28;20190;-68
2021/01/10 03:52:11;;;;;;;9.40;5.77;;;-3.80;99.90;;;;;;2064607;28;20269;-70
2021/01/10 03:53:12;;;;;;;9.10;5.53;;;-3.80;99.90;;;;;;2064333;28;20214;-69
2021/01/10 03:54:13;;;;;;;9.43;5.73;;;-3.80;99.90;;;;;;2064523;28;20167;-68
2021/01/10 03:55:14;;;;;;;8.43;5.07;;;-3.90;99.90;;;;;;2064269;28;20182;-70
2021/01/10 03:56:14;;;;;;;8.53;5.80;;;-4.00;99.90;;;;;;2072736;28;20173;-68
2021/01/10 03:57:15;;;;;;;9.23;5.40;;;-4.00;99.90;;;;;;2064997;28;20175;-69
2021/01/10 03:58:16;;;;;;;8.63;5.70;;;-4.00;99.90;;;;;;2064881;28;20537;-70
2021/01/10 03:59:16;;;;;;;8.93;5.67;;;-4.00;99.90;;;;;;2064893;28;20171;-69
2021/01/10 04:00:18;;;;;;;9.23;5.97;;;-4.00;99.90;;;;;;2064352;28;20170;-69
2021/01/10 04:01:18;;;;;;;9.88;6.05;;;-4.00;99.90;;;;;;2064201;28;20183;-68
2021/01/10 04:02:19;;;;;;;7.83;5.60;;;-4.00;99.90;;;;;;2064419;28;20182;-68
2021/01/10 04:03:20;;;;;;;9.57;6.10;;;-4.10;99.90;;;;;;2064501;28;20711;-69
2021/01/10 04:04:20;;;;;;;8.73;5.70;;;-4.00;99.90;;;;;;2064814;28;20171;-68
2021/01/10 04:05:21;;;;;;;9.47;6.20;;;-4.00;99.90;;;;;;2064938;28;20178;-68
2021/01/10 04:06:22;;;;;;;9.47;6.33;;;-4.00;99.90;;;;;;2064872;28;20220;-72
2021/01/10 04:07:22;;;;;;;9.23;5.70;;;-3.90;99.90;;;;;;2064967;28;20199;-68
2021/01/10 04:08:23;;;;;;;9.03;5.90;;;-3.90;99.90;;;;;;2064306;28;20791;-69
2021/01/10 04:09:24;;;;;;;9.87;6.40;;;-3.90;99.90;;;;;;2064886;28;20177;-70
2021/01/10 04:10:24;;;;;;;9.07;6.07;;;-3.80;99.90;;;;;;2064863;28;20175;-69
2021/01/10 04:11:25;;;;;;;8.70;5.70;;;-3.80;99.90;;;;;;2064811;28;20184;-71
2021/01/10 04:12:26;;;;;;;8.97;5.67;;;-3.80;99.90;;;;;;2064890;28;20224;-69
2021/01/10 04:13:26;;;;;;;12.63;6.37;;;-3.80;99.90;;;;;;2064923;28;20179;-69
2021/01/10 04:14:27;;;;;;;8.80;5.50;;;-3.80;99.90;;;;;;2064848;28;20190;-69
2021/01/10 04:15:28;;;;;;;10.53;7.00;;;-3.80;99.90;;;;;;2064870;28;20237;-69
2021/01/10 04:16:29;;;;;;;9.43;6.20;;;-4.00;99.90;;;;;;2064782;28;20228;-68
2021/01/10 04:17:30;;;;;;;8.68;5.70;;;-4.00;99.90;;;;;;2064115;28;20192;-70
2021/01/10 04:18:30;;;;;;;10.47;6.27;;;-3.90;99.90;;;;;;2064354;28;20239;-69
2021/01/10 04:19:31;;;;;;;8.77;6.27;;;-3.90;99.90;;;;;;2064857;28;20646;-68
2021/01/10 04:20:32;;;;;;;9.53;5.83;;;-3.90;99.90;;;;;;2064683;28;20222;-69
2021/01/10 04:21:34;;;;;;;10.40;6.63;;;-3.90;99.90;;;;;;2064517;28;20602;-69
2021/01/10 04:22:35;;;;;;;9.50;6.20;;;-3.90;99.90;;;;;;2064062;28;20755;-68
2021/01/10 04:23:35;;;;;;;8.93;5.57;;;-3.80;99.90;;;;;;2064191;28;20187;-70
2021/01/10 04:24:36;;;;;;;9.37;6.27;;;-3.90;99.90;;;;;;2064818;28;20682;-68
2021/01/10 04:25:37;;;;;;;10.60;6.60;;;-3.80;99.90;;;;;;2064829;28;20193;-68
2021/01/10 04:26:44;;;;;;;10.03;6.27;;;-3.70;99.90;;;;;;2064850;28;20255;-69
2021/01/10 04:27:45;;;;;;;8.60;5.75;;;-3.70;99.90;;;;;;2064287;28;20205;-69
2021/01/10 04:28:46;;;;;;;10.47;6.43;;;-3.80;99.90;;;;;;2064153;28;20580;-70
2021/01/10 04:29:47;;;;;;;9.63;6.10;;;-3.70;99.90;;;;;;2064872;28;20186;-68
2021/01/10 04:30:48;;;;;;;9.55;6.13;;;-3.80;99.90;;;;;;2064626;28;20269;-69
2021/01/10 04:31:50;;;;;;;8.90;5.38;;;-3.80;99.90;;;;;;2064706;28;20653;-68
2021/01/10 04:32:51;;;;;;;7.28;5.20;;;-3.80;99.90;;;;;;2064767;28;20182;-70
2021/01/10 04:33:52;;;;;;;8.43;6.00;;;-3.80;99.90;;;;;;2065013;28;20194;-69
2021/01/10 04:34:53;;;;;;;10.63;6.37;;;-3.80;99.90;;;;;;2065059;28;20219;-69
2021/01/10 04:35:54;;;;;;;8.47;5.40;;;-3.80;99.90;;;;;;2065070;28;20425;-68
2021/01/10 04:36:55;;;;;;;7.88;5.03;;;-3.80;99.90;;;;;;2064097;28;20194;-68
2021/01/10 04:37:55;;;;;;;8.97;5.40;;;-3.80;99.90;;;;;;2064054;28;20221;-68
2021/01/10 04:38:59;;;;;;;8.90;5.47;;;-3.80;99.90;;;;;;2064825;28;20305;-68
2021/01/10 04:40:00;;;;;;;8.57;6.00;;;-3.90;99.90;;;;;;2064880;28;20669;-69
2021/01/10 04:41:01;;;;;;;7.77;5.40;;;-4.00;99.90;;;;;;2064449;28;20210;-68
2021/01/10 04:42:03;;;;;;;8.57;6.10;;;-3.90;99.90;;;;;;2064757;28;20182;-69
2021/01/10 04:43:03;;;;;;;9.60;5.57;;;-3.90;99.90;;;;;;2064274;28;20182;-68
2021/01/10 04:44:04;;;;;;;10.20;6.33;;;-3.90;99.90;;;;;;2064285;28;20207;-70
2021/01/10 04:45:06;;;;;;;9.15;5.82;;;-3.80;99.90;;;;;;2064137;28;20212;-68
2021/01/10 04:46:07;;;;;;;9.27;6.10;;;-3.70;99.90;;;;;;2064332;28;20285;-68
2021/01/10 04:47:08;;;;;;;8.55;5.60;;;-3.80;99.90;;;;;;2064162;28;20197;-70
2021/01/10 04:48:10;;;;;;;8.47;6.00;;;-3.80;99.90;;;;;;2064165;28;20313;-68
2021/01/10 04:49:12;;;;;;;8.60;5.43;;;-3.80;99.90;;;;;;2056064;28;20172;-69
2021/01/10 04:50:13;;;;;;;7.60;5.05;;;-3.70;99.90;;;;;;2055942;28;20175;-69
2021/01/10 04:51:14;;;;;;;10.18;6.00;;;-3.70;99.90;;;;;;2063710;28;20179;-68
2021/01/10 04:52:19;;;;;;;7.82;5.22;;;-3.70;99.90;;;;;;2064443;28;20175;-68
2021/01/10 04:53:23;;;;;;;8.55;5.55;;;-3.70;99.90;;;;;;2063901;28;20635;-69
2021/01/10 04:54:29;;;;;;;8.13;4.85;;;-3.80;99.90;;;;;;2063931;28;20186;-72
2021/01/10 04:55:31;;;;;;;9.93;5.10;;;-3.70;99.90;;;;;;2063843;28;20182;-68
2021/01/10 04:56:35;;;;;;;8.90;5.22;;;-3.80;99.90;;;;;;2055978;28;20190;-69
2021/01/10 04:57:36;;;;;;;7.25;4.90;;;-3.90;99.90;;;;;;2056219;28;20230;-68
2021/01/10 04:58:38;;;;;;;7.13;4.77;;;-3.80;99.90;;;;;;2063736;28;20183;-70
2021/01/10 04:59:41;;;;;;;7.03;5.30;;;-3.80;99.90;;;;;;2064408;28;20647;-69
2021/01/10 05:00:42;;;;;;;7.35;4.78;;;-3.90;99.90;;;;;;2055648;28;20219;-69
2021/01/10 05:01:52;;;;;;;7.57;5.13;;;-3.90;99.90;;;;;;2055723;28;20207;-68
2021/01/10 05:03:03;;;;;;;8.68;5.53;;;-3.90;99.90;;;;;;2063923;28;20164;-69
2021/01/10 05:04:04;;;;;;;8.35;5.07;;;-4.00;99.90;;;;;;2056969;28;20175;-69
2021/01/10 05:05:05;;;;;;;8.55;5.22;;;-3.90;99.90;;;;;;2063862;28;20182;-70
2021/01/10 05:06:08;;;;;;;8.02;5.60;;;-3.90;99.90;;;;;;2064307;28;20768;-69
2021/01/10 05:07:09;;;;;;;7.95;5.18;;;-3.90;99.90;;;;;;2064406;28;20180;-70
2021/01/10 05:08:12;;;;;;;9.63;6.10;;;-3.90;99.90;;;;;;2064290;28;20198;-69
2021/01/10 05:09:12;;;;;;;8.32;4.68;;;-3.90;99.90;;;;;;2063614;28;20277;-70
2021/01/10 05:10:13;;;;;;;7.17;4.73;;;-3.90;99.90;;;;;;2063708;28;20190;-69
2021/01/10 05:11:16;;;;;;;7.13;4.40;;;-3.80;99.90;;;;;;2064181;28;20175;-68
2021/01/10 05:12:17;;;;;;;9.00;5.43;;;-3.80;99.90;;;;;;2063719;28;20229;-70
2021/01/10 05:13:17;;;;;;;7.90;4.93;;;-3.80;99.90;;;;;;2063824;28;20174;-69
2021/01/10 05:14:18;;;;;;;6.93;4.30;;;-3.90;99.90;;;;;;2063564;28;20693;-68
2021/01/10 05:15:19;;;;;;;7.17;4.50;;;-3.90;99.90;;;;;;2063790;28;20261;-69
2021/01/10 05:16:20;;;;;;;6.30;4.10;;;-3.80;99.90;;;;;;2064363;28;20670;-68
2021/01/10 05:17:21;;;;;;;7.30;4.70;;;-3.80;99.90;;;;;;2063787;28;20602;-69
2021/01/10 05:18:24;;;;;;;6.33;4.33;;;-3.80;99.90;;;;;;2063664;28;20236;-69
2021/01/10 05:19:29;;;;;;;7.78;5.10;;;-3.80;99.90;;;;;;2064152;28;20179;-70
2021/01/10 05:20:32;;;;;;;6.43;4.20;;;-3.80;99.90;;;;;;2065162;28;20198;-69
2021/01/10 05:21:32;;;;;;;6.65;4.38;;;-3.80;99.90;;;;;;2065070;28;20213;-69
2021/01/10 05:22:33;;;;;;;6.50;4.10;;;-3.70;99.90;;;;;;2065253;28;20631;-70
2021/01/10 05:23:34;;;;;;;7.47;4.23;;;-3.70;99.90;;;;;;2065308;28;20179;-69